Time;durP1;ratioP1;P1;durP2;ratioP2;P2;SDS_P1;SDS_P2;PMS_P1;PMS_P2;Temp;Humidity;BMP_temperature;BMP_pressure;BME280_temperature;BME280_humidity;BME280_pressure;Samples;Min_cycle;Max_cycle;Signal;HPM_P1;HPM_P2
2022/01/24 00:01:23;;;;;;;51.67;16.07;;;-4.20;99.90;;;;;;4343462;28;658446;-70
2022/01/24 00:04:11;;;;;;;48.77;15.93;;;-4.20;99.90;;;;;;4351664;28;659194;-70
2022/01/24 00:06:58;;;;;;;57.60;17.93;;;-4.30;99.90;;;;;;4358301;28;658917;-70
2022/01/24 00:09:48;;;;;;;64.10;18.93;;;-4.40;99.90;;;;;;4374857;28;659135;-70
2022/01/24 00:12:44;;;;;;;83.50;25.07;;;-4.50;99.90;;;;;;4351468;28;660613;-70
2022/01/24 00:15:52;;;;;;;64.70;20.60;;;-4.60;99.90;;;;;;4350695;28;659441;-70
2022/01/24 00:27:52;;;;;;;52.87;15.10;;;-5.10;99.90;;;;;;4350758;28;658608;-69
2022/01/24 00:30:39;;;;;;;36.47;13.23;;;-5.20;99.90;;;;;;4350853;28;658697;-70
2022/01/24 00:33:27;;;;;;;39.13;12.50;;;-5.30;99.90;;;;;;4370801;28;659174;-70
2022/01/24 00:36:14;;;;;;;40.23;12.83;;;-5.40;99.90;;;;;;4340050;28;659820;-70
2022/01/24 00:39:02;;;;;;;45.83;16.83;;;-5.50;99.90;;;;;;4366740;28;658844;-70
2022/01/24 00:42:02;;;;;;;53.93;16.37;;;-5.60;99.90;;;;;;4350169;28;659804;-70
2022/01/24 00:45:03;;;;;;;52.40;16.37;;;-5.70;99.90;;;;;;4327912;28;659936;-69
2022/01/24 00:48:07;;;;;;;51.13;16.23;;;-5.80;99.90;;;;;;4349514;28;658963;-69
2022/01/24 00:54:42;;;;;;;36.88;13.68;;;-6.00;99.90;;;;;;4327880;28;659316;-69
2022/01/24 00:57:13;;;;;;;50.20;15.63;;;-6.10;99.90;;;;;;4350053;28;659247;-71
2022/01/24 01:00:01;;;;;;;53.67;17.83;;;-6.20;99.90;;;;;;4351953;28;659398;-70
2022/01/24 01:02:48;;;;;;;50.77;16.23;;;-6.30;99.90;;;;;;4352532;28;659979;-71
2022/01/24 01:05:52;;;;;;;42.22;14.25;;;-6.40;99.90;;;;;;4373014;28;659575;-70
2022/01/24 01:18:15;;;;;;;45.37;14.97;;;-6.70;99.90;;;;;;4348398;28;659957;-70
2022/01/24 01:24:07;;;;;;;36.07;12.50;;;-6.80;99.90;;;;;;4344644;28;659705;-70
2022/01/24 01:27:00;;;;;;;38.40;13.43;;;-6.90;99.90;;;;;;4353128;28;658769;-70
2022/01/24 01:29:54;;;;;;;44.50;14.63;;;-6.90;99.90;;;;;;4346795;28;660091;-70
2022/01/24 01:32:55;;;;;;;37.87;13.27;;;-6.90;99.90;;;;;;4348372;28;658559;-70
2022/01/24 01:35:56;;;;;;;35.73;13.10;;;-6.90;99.90;;;;;;4350476;28;659487;-70
2022/01/24 01:54:18;;;;;;;39.70;12.77;;;-7.30;99.90;;;;;;4349743;28;658883;-70
2022/01/24 01:57:06;;;;;;;35.13;12.50;;;-7.40;99.90;;;;;;4325823;28;659247;-70
2022/01/24 01:59:53;;;;;;;35.93;11.73;;;-7.40;99.90;;;;;;4352109;28;658850;-71
2022/01/24 02:02:41;;;;;;;36.93;12.13;;;-7.50;99.90;;;;;;4376857;28;659965;-71
2022/01/24 02:05:30;;;;;;;35.97;11.23;;;-7.60;99.90;;;;;;4352771;28;658525;-71
2022/01/24 02:08:18;;;;;;;30.70;10.90;;;-7.60;99.90;;;;;;4363803;28;661130;-71
2022/01/24 02:11:09;;;;;;;34.87;11.40;;;-7.60;99.90;;;;;;4370841;28;658512;-70
2022/01/24 02:14:00;;;;;;;32.97;10.37;;;-7.60;99.90;;;;;;4348335;28;658984;-70
2022/01/24 02:16:52;;;;;;;32.50;11.47;;;-7.70;99.90;;;;;;4327170;28;658499;-71
2022/01/24 02:19:53;;;;;;;32.23;11.40;;;-7.70;99.90;;;;;;4348406;28;660671;-71
2022/01/24 02:22:49;;;;;;;34.47;11.07;;;-7.80;99.90;;;;;;4314925;28;661931;-70
2022/01/24 02:25:37;;;;;;;31.47;10.87;;;-7.90;99.90;;;;;;4356665;28;661230;-70
2022/01/24 02:28:27;;;;;;;35.93;12.87;;;-7.90;99.90;;;;;;4355051;28;659585;-70
2022/01/24 02:34:30;;;;;;;30.50;11.80;;;-8.00;99.90;;;;;;4350251;28;658439;-70
2022/01/24 02:37:20;;;;;;;29.80;10.82;;;-8.10;99.90;;;;;;4346797;28;658820;-71
2022/01/24 02:40:13;;;;;;;31.83;11.27;;;-8.20;99.90;;;;;;4357062;28;659570;-70
2022/01/24 02:48:23;;;;;;;34.03;11.60;;;-8.30;99.90;;;;;;4350401;28;659223;-69
2022/01/24 02:49:14;;;;;;;33.03;10.87;;;-8.30;99.90;;;;;;4324012;28;659162;-69
2022/01/24 02:52:06;;;;;;;35.10;11.90;;;-8.40;99.90;;;;;;4369933;28;659507;-69
2022/01/24 02:54:53;;;;;;;29.77;11.43;;;-8.40;99.90;;;;;;4329800;28;658678;-69
2022/01/24 02:57:42;;;;;;;27.93;10.70;;;-8.50;99.90;;;;;;4376063;28;659723;-70
2022/01/24 03:00:30;;;;;;;25.27;10.13;;;-8.50;99.90;;;;;;4351138;28;660081;-69
2022/01/24 03:03:17;;;;;;;31.07;10.83;;;-8.60;99.90;;;;;;4364169;28;658891;-69
2022/01/24 03:06:05;;;;;;;27.20;10.07;;;-8.60;99.90;;;;;;4350035;28;660170;-70
2022/01/24 03:08:52;;;;;;;26.60;9.50;;;-8.70;99.90;;;;;;4373875;28;659005;-71
2022/01/24 03:11:58;;;;;;;32.70;10.57;;;-8.80;99.90;;;;;;4332249;28;659692;-70
2022/01/24 03:14:47;;;;;;;30.60;10.93;;;-8.80;99.90;;;;;;4352695;28;659069;-69
2022/01/24 03:17:35;;;;;;;29.77;10.87;;;-8.80;99.90;;;;;;4349733;28;659348;-70
2022/01/24 03:20:23;;;;;;;32.60;10.63;;;-8.90;99.90;;;;;;4371781;28;658671;-70
2022/01/24 03:23:11;;;;;;;32.13;11.10;;;-8.90;99.90;;;;;;4374350;28;659348;-70
2022/01/24 03:25:58;;;;;;;30.17;11.32;;;-8.90;99.90;;;;;;4355908;28;658684;-71
2022/01/24 03:28:46;;;;;;;31.13;11.20;;;-8.90;99.90;;;;;;4374459;28;659106;-69
2022/01/24 03:31:35;;;;;;;32.15;11.20;;;-8.90;99.90;;;;;;4354864;28;659015;-70
2022/01/24 03:34:22;;;;;;;31.27;11.93;;;-9.00;99.90;;;;;;4373785;28;659390;-67
2022/01/24 03:37:10;;;;;;;32.87;11.90;;;-9.00;99.90;;;;;;4354076;28;659724;-70
2022/01/24 03:39:57;;;;;;;34.23;11.00;;;-9.00;99.90;;;;;;4378259;28;659201;-70
2022/01/24 03:42:45;;;;;;;30.37;11.07;;;-8.90;99.90;;;;;;4355029;28;660363;-70
2022/01/24 03:45:41;;;;;;;33.83;11.17;;;-8.90;99.90;;;;;;4372728;28;659208;-71
2022/01/24 03:48:38;;;;;;;29.93;11.33;;;-8.90;99.90;;;;;;4336691;28;658895;-71
2022/01/24 03:51:26;;;;;;;28.23;11.13;;;-9.00;99.90;;;;;;4355183;28;659246;-70
2022/01/24 03:54:13;;;;;;;32.97;11.50;;;-9.00;99.90;;;;;;4350729;28;658958;-70
2022/01/24 03:57:01;;;;;;;29.50;10.43;;;-9.00;99.90;;;;;;4377010;28;659579;-69
2022/01/24 03:59:54;;;;;;;27.67;9.93;;;-9.00;99.90;;;;;;4358133;28;658712;-70
2022/01/24 04:02:46;;;;;;;24.65;10.30;;;-9.00;99.90;;;;;;4354814;28;659709;-70
2022/01/24 04:05:36;;;;;;;28.87;10.60;;;-9.00;99.90;;;;;;4333894;28;658363;-69
2022/01/24 04:08:25;;;;;;;33.00;11.73;;;-9.00;99.90;;;;;;4356371;28;658453;-70
2022/01/24 04:11:14;;;;;;;38.40;12.93;;;-9.10;99.90;;;;;;4362162;28;658724;-70
2022/01/24 04:14:22;;;;;;;114.93;32.03;;;-9.10;99.90;;;;;;4374250;28;658994;-70
2022/01/24 04:17:37;;;;;;;99.53;30.03;;;-9.10;99.90;;;;;;4325738;28;660002;-69
2022/01/24 04:23:40;;;;;;;136.23;37.20;;;-9.10;99.90;;;;;;4354540;28;659941;-71
2022/01/24 04:26:28;;;;;;;134.00;38.38;;;-9.20;99.90;;;;;;4341985;28;660092;-70
2022/01/24 04:29:16;;;;;;;90.77;27.83;;;-9.20;99.90;;;;;;4379113;28;660955;-70
2022/01/24 04:32:05;;;;;;;71.17;21.90;;;-9.20;99.90;;;;;;4340804;28;659385;-70
2022/01/24 04:35:01;;;;;;;66.37;20.47;;;-9.20;99.90;;;;;;4374413;28;659193;-69
2022/01/24 04:37:50;;;;;;;54.27;17.00;;;-9.20;99.90;;;;;;4329246;28;659487;-70
2022/01/24 04:40:43;;;;;;;33.03;11.67;;;-9.30;99.90;;;;;;4370369;28;659847;-71
2022/01/24 04:43:46;;;;;;;30.63;11.70;;;-9.30;99.90;;;;;;4354255;28;659468;-69
2022/01/24 04:46:58;;;;;;;28.93;11.17;;;-9.30;99.90;;;;;;4334349;28;659695;-70
2022/01/24 04:53:06;;;;;;;32.77;12.00;;;-9.20;99.90;;;;;;4327671;28;658810;-70
2022/01/24 04:55:58;;;;;;;29.10;10.90;;;-9.20;99.90;;;;;;4329059;28;659528;-70
2022/01/24 04:58:51;;;;;;;27.57;11.40;;;-9.20;99.90;;;;;;4352489;28;659321;-70
2022/01/24 05:01:38;;;;;;;37.70;11.50;;;-9.20;99.90;;;;;;4331377;28;659542;-70
2022/01/24 05:04:26;;;;;;;34.58;12.55;;;-9.20;99.90;;;;;;4374559;28;660796;-70
2022/01/24 05:07:15;;;;;;;33.53;12.63;;;-9.20;99.90;;;;;;4356738;28;658690;-70
2022/01/24 05:10:14;;;;;;;34.00;12.70;;;-9.20;99.90;;;;;;4379820;28;658504;-69
2022/01/24 05:25:43;;;;;;;39.93;13.67;;;-9.20;99.90;;;;;;4337889;28;658726;-70
2022/01/24 05:28:32;;;;;;;40.27;14.57;;;-9.20;99.90;;;;;;4351782;28;660290;-70
2022/01/24 05:31:21;;;;;;;44.03;15.37;;;-9.20;99.90;;;;;;4355542;28;658485;-70
2022/01/24 05:34:08;;;;;;;37.10;14.50;;;-9.30;99.90;;;;;;4371069;28;658975;-70
2022/01/24 05:36:56;;;;;;;36.30;14.83;;;-9.30;99.90;;;;;;4375208;28;659676;-70
2022/01/24 05:39:44;;;;;;;38.83;13.70;;;-9.30;99.90;;;;;;4356831;28;658466;-70
2022/01/24 05:42:31;;;;;;;38.30;15.17;;;-9.30;99.90;;;;;;4380456;28;659722;-69
2022/01/24 05:45:20;;;;;;;40.63;15.83;;;-9.40;99.90;;;;;;4345549;28;659175;-70
2022/01/24 05:48:08;;;;;;;47.43;16.10;;;-9.40;99.90;;;;;;4358474;28;659523;-70
2022/01/24 05:50:55;;;;;;;41.83;15.07;;;-9.50;99.90;;;;;;4348567;28;659600;-69
2022/01/24 05:53:43;;;;;;;37.17;13.40;;;-9.50;99.90;;;;;;4375767;28;658703;-70
2022/01/24 05:56:30;;;;;;;42.60;15.03;;;-9.50;99.90;;;;;;4348178;28;659058;-69
2022/01/24 05:59:19;;;;;;;45.20;15.53;;;-9.60;99.90;;;;;;4364106;28;659591;-71
2022/01/24 06:02:08;;;;;;;41.70;13.87;;;-9.60;99.90;;;;;;4374143;28;658558;-70
2022/01/24 06:04:55;;;;;;;43.90;15.10;;;-9.60;99.90;;;;;;4343475;28;659725;-70
2022/01/24 06:07:44;;;;;;;40.77;14.20;;;-9.70;99.90;;;;;;4369427;28;658461;-71
2022/01/24 06:10:31;;;;;;;38.13;14.80;;;-9.70;99.90;;;;;;4358435;28;659756;-69
2022/01/24 06:13:19;;;;;;;35.97;14.35;;;-9.70;99.90;;;;;;4354823;28;659067;-70
2022/01/24 06:16:06;;;;;;;31.90;12.43;;;-9.60;99.90;;;;;;4377377;28;659401;-69
2022/01/24 06:18:55;;;;;;;41.17;13.53;;;-9.50;99.90;;;;;;4355759;28;658831;-70
2022/01/24 06:21:44;;;;;;;61.10;17.73;;;-9.50;99.90;;;;;;4375860;28;658327;-70
2022/01/24 06:24:32;;;;;;;100.83;27.37;;;-9.40;99.90;;;;;;4352001;28;659213;-69
2022/01/24 06:27:20;;;;;;;92.37;25.13;;;-9.50;99.90;;;;;;4351583;28;659947;-70
2022/01/24 06:30:25;;;;;;;216.70;41.60;;;-9.50;99.90;;;;;;4376778;28;658286;-69
2022/01/24 06:33:16;;;;;;;491.27;92.10;;;-9.50;99.90;;;;;;4345614;28;659555;-69
2022/01/24 06:36:09;;;;;;;303.38;60.20;;;-9.50;99.90;;;;;;4333305;28;659974;-70
2022/01/24 06:39:01;;;;;;;226.13;56.30;;;-9.50;99.90;;;;;;4350288;28;660501;-69
2022/01/24 06:42:05;;;;;;;290.53;68.87;;;-9.50;99.90;;;;;;4329034;28;660160;-70
2022/01/24 06:44:54;;;;;;;139.32;38.78;;;-9.50;99.90;;;;;;4342780;28;659942;-69
2022/01/24 06:47:42;;;;;;;126.17;34.53;;;-9.40;99.90;;;;;;4343607;28;659991;-70
2022/01/24 06:50:29;;;;;;;82.50;21.77;;;-9.30;99.90;;;;;;4342345;28;659456;-70
2022/01/24 06:53:18;;;;;;;46.50;15.17;;;-9.20;99.90;;;;;;4363159;28;658597;-69
2022/01/24 06:56:06;;;;;;;104.05;22.88;;;-9.20;99.90;;;;;;4346066;28;659034;-69
2022/01/24 06:58:54;;;;;;;86.50;21.42;;;-9.10;99.90;;;;;;4360448;28;659836;-70
2022/01/24 07:01:41;;;;;;;71.63;19.20;;;-9.00;99.90;;;;;;4367089;28;659232;-69
2022/01/24 07:04:39;;;;;;;71.23;20.70;;;-8.80;99.90;;;;;;4354694;28;659301;-70
2022/01/24 07:07:28;;;;;;;57.37;17.70;;;-8.60;99.90;;;;;;4352060;28;659014;-69
2022/01/24 07:10:17;;;;;;;63.90;18.33;;;-8.50;99.90;;;;;;4351947;28;659500;-70
2022/01/24 07:13:05;;;;;;;49.77;17.93;;;-8.30;99.90;;;;;;4338794;28;659128;-69
2022/01/24 07:15:58;;;;;;;57.50;18.60;;;-8.10;99.90;;;;;;4357352;28;658713;-69
2022/01/24 07:19:03;;;;;;;54.10;18.87;;;-7.90;99.90;;;;;;4334951;28;659274;-69
2022/01/24 07:21:51;;;;;;;53.83;17.70;;;-7.80;99.90;;;;;;4313658;28;659079;-69
2022/01/24 07:24:39;;;;;;;55.63;18.30;;;-7.50;99.90;;;;;;4353754;28;659113;-70
2022/01/24 07:27:28;;;;;;;58.93;19.73;;;-7.30;99.90;;;;;;4375478;28;660661;-69
2022/01/24 07:30:15;;;;;;;157.17;38.67;;;-7.10;99.90;;;;;;4333207;28;659054;-70
2022/01/24 07:33:03;;;;;;;167.13;42.17;;;-6.90;99.90;;;;;;4376307;28;659663;-70
2022/01/24 07:35:51;;;;;;;120.33;34.07;;;-6.70;99.90;;;;;;4343017;28;660338;-70
2022/01/24 07:38:39;;;;;;;107.57;29.47;;;-6.50;99.90;;;;;;4377251;28;660100;-70
2022/01/24 07:41:27;;;;;;;63.73;20.47;;;-6.30;99.90;;;;;;4373291;28;660396;-69
2022/01/24 07:44:20;;;;;;;50.27;18.70;;;-6.20;99.90;;;;;;4355699;28;658324;-70
2022/01/24 07:47:07;;;;;;;57.87;19.10;;;-6.00;99.90;;;;;;4328014;28;658899;-70
2022/01/24 07:49:55;;;;;;;37.77;15.10;;;-5.80;99.90;;;;;;4349471;28;658651;-69
2022/01/24 07:52:42;;;;;;;39.63;13.80;;;-5.70;99.90;;;;;;4369379;28;657899;-69
2022/01/24 07:55:30;;;;;;;31.33;13.37;;;-5.50;99.90;;;;;;4350161;28;658673;-69
2022/01/24 07:58:17;;;;;;;30.13;12.67;;;-5.30;99.90;;;;;;4374062;28;658532;-70
2022/01/24 08:01:06;;;;;;;45.70;16.23;;;-5.10;99.90;;;;;;4354464;28;659151;-70
2022/01/24 08:03:54;;;;;;;83.27;23.80;;;-4.90;99.90;;;;;;4349963;28;659539;-69
2022/01/24 08:06:43;;;;;;;133.17;37.83;;;-4.70;99.90;;;;;;4369896;28;659244;-69
2022/01/24 08:09:30;;;;;;;68.20;23.70;;;-4.60;99.90;;;;;;4339430;28;660642;-69
2022/01/24 08:12:18;;;;;;;55.33;21.52;;;-4.30;99.90;;;;;;4362412;28;658767;-70
2022/01/24 08:15:08;;;;;;;59.70;23.87;;;-4.00;99.90;;;;;;4349936;28;659904;-69
2022/01/24 08:17:57;;;;;;;98.38;32.20;;;-3.50;99.90;;;;;;4351627;28;659604;-69
2022/01/24 08:20:45;;;;;;;117.45;39.72;;;-3.10;99.90;;;;;;4350367;28;658913;-69
2022/01/24 08:23:32;;;;;;;93.20;33.97;;;-2.50;99.90;;;;;;4360176;28;659188;-69
2022/01/24 08:26:20;;;;;;;75.13;33.43;;;-1.90;99.90;;;;;;4357880;28;658569;-69
2022/01/24 08:29:08;;;;;;;74.50;31.93;;;-1.00;99.90;;;;;;4376452;28;658965;-69
2022/01/24 08:31:55;;;;;;;48.43;22.00;;;-0.10;99.90;;;;;;4354454;28;659676;-70
2022/01/24 08:34:45;;;;;;;43.67;20.80;;;0.80;99.90;;;;;;4385188;28;659187;-69
2022/01/24 08:37:33;;;;;;;57.08;25.10;;;1.80;99.90;;;;;;4339508;28;658459;-70
2022/01/24 08:40:23;;;;;;;41.80;19.73;;;2.60;94.60;;;;;;4339888;28;658955;-70
2022/01/24 08:43:11;;;;;;;56.30;24.73;;;3.30;89.30;;;;;;4350206;28;658254;-70
2022/01/24 08:45:59;;;;;;;53.07;23.57;;;3.80;80.10;;;;;;4366330;28;657519;-70
2022/01/24 08:48:47;;;;;;;57.13;25.38;;;4.20;65.40;;;;;;4365240;28;657950;-70
2022/01/24 08:51:36;;;;;;;65.43;27.27;;;4.50;63.30;;;;;;4372994;28;658433;-70
2022/01/24 08:54:24;;;;;;;64.00;27.70;;;4.70;56.30;;;;;;4372366;28;657524;-71
2022/01/24 08:57:13;;;;;;;65.00;26.53;;;4.50;53.60;;;;;;4395309;28;657946;-69
2022/01/24 09:00:00;;;;;;;57.47;24.10;;;4.40;53.50;;;;;;4373863;28;658460;-69
2022/01/24 09:02:48;;;;;;;49.67;20.60;;;4.20;52.20;;;;;;4372760;28;657312;-70
2022/01/24 09:05:36;;;;;;;67.40;26.23;;;4.00;51.50;;;;;;4311301;28;1259239;-70
2022/01/24 09:08:25;;;;;;;61.20;25.17;;;3.80;51.30;;;;;;4365205;28;658840;-70
2022/01/24 09:11:13;;;;;;;54.93;22.57;;;3.60;50.50;;;;;;4372012;28;658414;-69
2022/01/24 09:14:01;;;;;;;42.43;18.47;;;3.90;52.30;;;;;;4352009;28;658471;-70
2022/01/24 09:16:49;;;;;;;44.10;18.47;;;4.00;50.20;;;;;;4367771;28;657415;-70
2022/01/24 09:19:36;;;;;;;43.63;19.80;;;4.20;50.20;;;;;;4369233;28;658312;-70
2022/01/24 09:22:24;;;;;;;46.73;20.73;;;4.40;49.10;;;;;;4372436;28;658079;-70
2022/01/24 09:25:26;;;;;;;42.40;18.17;;;4.80;48.40;;;;;;4378240;28;658369;-70
2022/01/24 09:28:15;;;;;;;44.00;19.10;;;5.00;47.50;;;;;;4328973;28;657465;-69
2022/01/24 09:31:03;;;;;;;33.60;14.27;;;5.40;46.90;;;;;;4391799;28;657370;-70
2022/01/24 09:33:50;;;;;;;29.17;14.07;;;5.60;44.60;;;;;;4358103;28;658596;-70
2022/01/24 09:36:39;;;;;;;39.80;17.23;;;5.80;44.10;;;;;;4364346;28;658224;-70
2022/01/24 09:39:27;;;;;;;32.17;14.57;;;5.80;43.30;;;;;;4377802;28;658357;-69
2022/01/24 09:42:17;;;;;;;32.10;14.97;;;5.80;42.80;;;;;;4360670;28;657420;-69
2022/01/24 09:45:06;;;;;;;33.40;16.33;;;6.20;43.10;;;;;;4361461;28;657544;-70
2022/01/24 09:47:54;;;;;;;32.17;14.80;;;6.70;42.40;;;;;;4364899;28;658116;-70
2022/01/24 09:50:42;;;;;;;31.27;13.93;;;7.20;41.80;;;;;;4378197;28;658110;-69
2022/01/24 09:53:30;;;;;;;27.27;12.80;;;7.20;39.40;;;;;;4357127;28;658600;-69
2022/01/24 09:56:19;;;;;;;23.23;12.47;;;7.40;40.30;;;;;;4384077;28;657151;-69
2022/01/24 09:59:08;;;;;;;26.80;12.47;;;7.70;39.80;;;;;;4351526;28;658430;-69
2022/01/24 10:01:56;;;;;;;31.87;15.37;;;7.80;38.40;;;;;;4336917;28;658111;-70
2022/01/24 10:04:44;;;;;;;32.33;16.07;;;7.90;38.50;;;;;;4363314;28;657778;-70
2022/01/24 10:07:31;;;;;;;26.40;13.07;;;8.40;38.60;;;;;;4377294;28;658173;-69
2022/01/24 10:10:27;;;;;;;26.50;13.23;;;8.50;36.30;;;;;;4365435;28;657679;-70
2022/01/24 10:16:31;;;;;;;24.77;12.73;;;9.10;36.40;;;;;;4345313;28;657754;-71
2022/01/24 10:19:21;;;;;;;31.00;16.10;;;9.60;36.10;;;;;;4337210;28;658450;-70
2022/01/24 10:22:09;;;;;;;25.47;14.23;;;9.80;35.00;;;;;;4371522;28;657567;-71
2022/01/24 10:24:57;;;;;;;27.50;14.37;;;10.00;33.10;;;;;;4371046;28;657850;-70
2022/01/24 10:27:45;;;;;;;22.70;12.48;;;10.60;33.80;;;;;;4355954;28;658899;-70
2022/01/24 10:30:33;;;;;;;21.00;10.57;;;10.70;32.00;;;;;;4376261;28;658820;-70
2022/01/24 10:33:22;;;;;;;30.07;14.60;;;10.50;29.70;;;;;;4354571;28;660492;-71
2022/01/24 10:36:10;;;;;;;22.70;11.88;;;10.20;30.60;;;;;;4352423;28;658376;-71
2022/01/24 10:39:11;;;;;;;19.70;10.47;;;9.70;32.20;;;;;;4362185;28;658444;-70
2022/01/24 10:45:22;;;;;;;21.83;10.97;;;9.10;33.90;;;;;;4344912;28;658087;-70
2022/01/24 10:48:10;;;;;;;16.93;8.60;;;9.10;34.10;;;;;;4356365;28;657330;-71
2022/01/24 10:51:09;;;;;;;20.83;10.20;;;9.30;33.50;;;;;;4365404;28;656797;-70
2022/01/24 10:53:57;;;;;;;18.30;10.43;;;8.40;32.90;;;;;;4347147;28;658135;-69
2022/01/24 10:56:46;;;;;;;21.07;10.80;;;7.80;35.30;;;;;;4355864;28;657928;-70
2022/01/24 10:59:35;;;;;;;26.40;12.80;;;7.20;36.20;;;;;;4366996;28;657778;-70
2022/01/24 11:02:22;;;;;;;22.67;11.60;;;7.40;37.20;;;;;;4373821;28;657351;-69
2022/01/24 11:05:14;;;;;;;27.20;13.60;;;7.50;37.50;;;;;;4352534;28;657862;-70
2022/01/24 11:08:05;;;;;;;27.80;14.63;;;8.40;37.70;;;;;;4353091;28;658727;-70
2022/01/24 11:10:52;;;;;;;24.93;12.20;;;8.60;35.40;;;;;;4353373;28;657653;-69
2022/01/24 11:13:43;;;;;;;33.23;15.60;;;8.10;34.50;;;;;;4357778;28;658915;-70
2022/01/24 11:16:30;;;;;;;33.23;16.83;;;8.20;36.60;;;;;;4355799;28;658227;-70
2022/01/24 11:19:26;;;;;;;33.73;16.80;;;8.20;35.70;;;;;;4367349;28;657844;-71
2022/01/24 11:22:20;;;;;;;35.57;15.10;;;8.60;35.10;;;;;;4333981;28;657474;-70
2022/01/24 11:25:10;;;;;;;24.38;12.40;;;9.30;34.20;;;;;;4348671;28;658081;-70
2022/01/24 11:27:58;;;;;;;27.87;14.93;;;9.70;33.00;;;;;;4344072;28;657568;-70
2022/01/24 11:30:49;;;;;;;25.80;13.93;;;10.60;31.90;;;;;;4344996;28;659570;-70
2022/01/24 11:33:38;;;;;;;27.33;13.73;;;11.30;31.50;;;;;;4345220;28;659913;-70
2022/01/24 11:36:36;;;;;;;26.13;14.40;;;11.80;30.20;;;;;;4353925;28;659183;-70
2022/01/24 11:39:24;;;;;;;29.03;16.27;;;12.20;30.00;;;;;;4330124;28;658919;-70
2022/01/24 11:42:13;;;;;;;27.03;15.47;;;12.50;29.50;;;;;;4375235;28;660083;-70
2022/01/24 11:45:05;;;;;;;28.80;15.03;;;12.30;29.40;;;;;;4347774;28;659928;-70
2022/01/24 11:47:52;;;;;;;28.97;15.23;;;11.70;29.60;;;;;;4348129;28;659410;-70
2022/01/24 11:50:40;;;;;;;31.17;16.03;;;11.10;30.00;;;;;;4356590;28;659651;-70
2022/01/24 11:53:41;;;;;;;29.83;16.27;;;10.90;30.90;;;;;;4362916;28;658644;-70
2022/01/24 11:56:31;;;;;;;29.67;15.70;;;10.40;31.00;;;;;;4333407;28;659267;-70
2022/01/24 11:59:22;;;;;;;30.60;15.97;;;9.40;31.60;;;;;;4366238;28;659080;-70
2022/01/24 12:02:11;;;;;;;36.13;16.03;;;8.00;33.90;;;;;;4333539;28;657637;-71
2022/01/24 12:05:00;;;;;;;32.43;15.47;;;7.60;35.80;;;;;;4357261;28;657630;-71
2022/01/24 12:07:48;;;;;;;33.40;16.73;;;7.20;37.80;;;;;;4378219;28;658048;-70
2022/01/24 12:10:42;;;;;;;31.57;15.13;;;7.10;37.70;;;;;;4355636;28;657956;-70
2022/01/24 12:13:36;;;;;;;36.60;17.50;;;7.30;37.20;;;;;;4334505;28;658130;-70
2022/01/24 12:16:34;;;;;;;36.57;17.23;;;6.30;37.50;;;;;;4340889;28;657336;-70
2022/01/24 12:19:31;;;;;;;38.30;17.77;;;6.50;38.20;;;;;;4356553;28;659184;-70
2022/01/24 12:22:34;;;;;;;39.28;17.60;;;6.80;38.10;;;;;;4334902;28;657562;-70
2022/01/24 12:25:43;;;;;;;33.17;16.47;;;7.40;38.90;;;;;;4348805;28;657903;-71
2022/01/24 12:28:32;;;;;;;34.47;17.77;;;8.10;38.50;;;;;;4324697;28;658391;-70
2022/01/24 12:31:21;;;;;;;34.13;17.03;;;8.30;37.50;;;;;;4357806;28;658321;-70
2022/01/24 12:34:31;;;;;;;33.33;16.53;;;8.70;37.00;;;;;;4354350;28;658173;-70
2022/01/24 12:37:30;;;;;;;29.97;15.47;;;8.90;36.20;;;;;;4333650;28;658201;-70
2022/01/24 12:40:25;;;;;;;37.37;18.67;;;9.20;36.60;;;;;;4353213;28;657564;-70
2022/01/24 12:43:19;;;;;;;39.57;19.17;;;9.20;35.30;;;;;;4349126;28;657345;-70
2022/01/24 12:46:19;;;;;;;43.97;19.90;;;8.90;35.20;;;;;;4352379;28;657618;-70
2022/01/24 12:49:07;;;;;;;40.53;19.87;;;8.50;36.00;;;;;;4330570;28;657885;-70
2022/01/24 12:51:56;;;;;;;42.03;19.53;;;8.50;36.40;;;;;;4345165;28;657669;-69
2022/01/24 12:54:45;;;;;;;47.47;21.13;;;8.60;36.70;;;;;;4352761;28;658100;-70
2022/01/24 12:57:39;;;;;;;43.53;20.20;;;8.40;36.10;;;;;;4369255;28;657836;-70
2022/01/24 13:00:29;;;;;;;41.45;21.42;;;8.20;36.80;;;;;;4348118;28;658415;-70
2022/01/24 13:03:16;;;;;;;49.17;22.50;;;8.00;37.10;;;;;;4346606;28;657769;-70
2022/01/24 13:06:14;;;;;;;49.83;22.50;;;7.80;37.70;;;;;;4358112;28;658176;-70
2022/01/24 13:09:04;;;;;;;43.87;20.77;;;7.30;37.30;;;;;;4349420;28;658394;-70
2022/01/24 13:11:53;;;;;;;55.22;23.92;;;6.50;38.90;;;;;;4353593;28;658106;-70
2022/01/24 13:14:45;;;;;;;48.03;22.83;;;6.10;40.00;;;;;;4352864;28;658330;-70
2022/01/24 13:21:11;;;;;;;49.43;21.27;;;5.70;41.60;;;;;;4330988;28;657189;-70
2022/01/24 13:24:00;;;;;;;46.57;21.00;;;5.40;42.40;;;;;;4337802;28;659607;-70
2022/01/24 13:27:09;;;;;;;50.00;21.80;;;5.00;43.30;;;;;;4372104;28;657743;-71
2022/01/24 13:29:56;;;;;;;60.27;22.97;;;4.60;44.30;;;;;;4349840;28;658251;-70
2022/01/24 13:32:47;;;;;;;56.40;22.63;;;4.30;44.80;;;;;;4357813;28;658132;-71
2022/01/24 13:35:35;;;;;;;58.23;24.33;;;3.80;44.90;;;;;;4354672;28;657760;-70
2022/01/24 13:38:25;;;;;;;58.33;24.73;;;3.30;45.80;;;;;;4376467;28;658040;-69
2022/01/24 13:41:13;;;;;;;61.63;26.53;;;2.80;47.20;;;;;;4351192;28;657896;-69
2022/01/24 13:44:03;;;;;;;60.07;25.10;;;2.60;48.40;;;;;;4357943;28;658643;-70
2022/01/24 13:46:51;;;;;;;58.50;23.93;;;2.20;49.60;;;;;;4343430;28;659363;-70
2022/01/24 13:49:39;;;;;;;58.67;24.70;;;2.10;50.30;;;;;;4357248;28;657554;-70
2022/01/24 13:52:26;;;;;;;62.23;25.87;;;2.00;51.40;;;;;;4379537;28;658344;-70
2022/01/24 13:55:16;;;;;;;63.23;24.13;;;1.80;52.20;;;;;;4340638;28;657629;-70
2022/01/24 13:58:05;;;;;;;53.37;22.43;;;1.70;53.10;;;;;;4350926;28;657969;-70
2022/01/24 14:00:58;;;;;;;62.90;23.40;;;1.50;53.10;;;;;;4359592;28;657879;-70
2022/01/24 14:03:56;;;;;;;54.10;22.37;;;1.50;53.90;;;;;;4313920;28;658964;-69
2022/01/24 14:06:44;;;;;;;51.57;21.77;;;1.40;54.80;;;;;;4318195;28;657246;-70
2022/01/24 14:09:40;;;;;;;54.10;23.07;;;1.30;55.60;;;;;;4359446;28;658449;-70
2022/01/24 14:12:33;;;;;;;52.73;21.60;;;1.20;56.50;;;;;;4334767;28;657462;-69
2022/01/24 14:15:26;;;;;;;47.03;19.70;;;1.00;56.10;;;;;;4315427;28;658861;-70
2022/01/24 14:18:30;;;;;;;45.67;18.43;;;0.90;57.10;;;;;;4313713;28;657474;-70
2022/01/24 14:21:18;;;;;;;44.00;18.37;;;0.90;57.20;;;;;;4335123;28;657464;-70
2022/01/24 14:24:07;;;;;;;53.20;21.80;;;0.80;57.90;;;;;;4337405;28;657996;-70
2022/01/24 14:26:56;;;;;;;57.27;24.67;;;0.70;58.40;;;;;;4356681;28;657687;-70
2022/01/24 14:29:44;;;;;;;61.33;24.20;;;0.60;59.10;;;;;;4340527;28;658045;-71
2022/01/24 14:32:34;;;;;;;58.80;23.17;;;0.50;60.00;;;;;;4370916;28;658548;-70
2022/01/24 14:35:24;;;;;;;53.00;23.03;;;0.40;61.00;;;;;;4339695;28;658371;-70
2022/01/24 14:38:12;;;;;;;50.77;21.37;;;0.30;62.30;;;;;;4352595;28;658156;-71
2022/01/24 14:41:01;;;;;;;43.37;17.77;;;0.20;63.30;;;;;;4338642;28;658361;-70
2022/01/24 14:46:55;;;;;;;43.50;18.43;;;0.10;64.80;;;;;;4314501;28;657908;-71
2022/01/24 14:49:43;;;;;;;49.03;20.10;;;0.00;66.40;;;;;;4356031;28;657668;-71
2022/01/24 14:52:35;;;;;;;53.63;21.20;;;-0.10;65.80;;;;;;4330419;28;658754;-70
2022/01/24 14:55:23;;;;;;;48.45;20.08;;;-0.20;66.80;;;;;;4326172;28;659258;-70
2022/01/24 14:58:10;;;;;;;49.50;19.80;;;-0.40;68.00;;;;;;4334355;28;659758;-70
2022/01/24 15:00:58;;;;;;;54.60;21.23;;;-0.40;68.90;;;;;;4370834;28;659213;-70
2022/01/24 15:03:45;;;;;;;45.23;18.60;;;-0.50;70.80;;;;;;4338070;28;660473;-70
2022/01/24 15:06:33;;;;;;;47.90;18.60;;;-0.60;69.70;;;;;;4358989;28;659020;-70
2022/01/24 15:09:23;;;;;;;51.33;19.10;;;-0.80;71.20;;;;;;4325512;28;659135;-70
2022/01/24 15:12:11;;;;;;;53.90;20.33;;;-0.80;73.40;;;;;;4343793;28;659215;-69
2022/01/24 15:15:00;;;;;;;55.35;19.80;;;-0.80;75.00;;;;;;4342066;28;659167;-71
2022/01/24 15:24:24;;;;;;;56.05;22.70;;;-0.90;77.50;;;;;;4319142;28;658614;-70
2022/01/24 15:27:11;;;;;;;59.93;23.90;;;-1.00;77.70;;;;;;4310366;28;659833;-70
2022/01/24 15:29:59;;;;;;;63.60;23.47;;;-1.00;80.80;;;;;;4337980;28;659123;-70
2022/01/24 15:32:47;;;;;;;62.97;25.40;;;-1.10;80.90;;;;;;4367529;28;659852;-70
2022/01/24 15:35:34;;;;;;;78.50;28.67;;;-1.10;82.00;;;;;;4353624;28;659200;-70
2022/01/24 15:38:22;;;;;;;102.87;33.60;;;-1.20;81.00;;;;;;4359050;28;658242;-70
2022/01/24 15:41:10;;;;;;;90.83;32.30;;;-1.30;81.10;;;;;;4342207;28;659475;-70
2022/01/24 15:44:05;;;;;;;77.10;29.10;;;-1.30;83.20;;;;;;4360885;28;659321;-70